createdAt,value
2019-05-19T00:00:01.841Z,70.05
2019-05-19T00:01:01.820Z,70.36
2019-05-19T00:02:01.774Z,70.86
2019-05-19T00:03:01.765Z,70.15
2019-05-19T00:04:01.749Z,70.76
2019-05-19T00:05:01.776Z,70.56
2019-05-19T00:06:01.727Z,71.06
2019-05-19T00:07:01.724Z,70.96
2019-05-19T00:08:01.706Z,70.86
2019-05-19T00:09:01.696Z,70.25
2019-05-19T00:10:01.729Z,70.56
2019-05-19T00:11:01.705Z,70.45
2019-05-19T00:12:01.663Z,70.36
2019-05-19T00:13:01.658Z,70.25
2019-05-19T00:14:01.647Z,70.15
2019-05-19T00:15:01.628Z,70.25
2019-05-19T00:16:01.647Z,70.45
2019-05-19T00:17:01.627Z,70.18
2019-05-19T00:18:01.650Z,70.56
2019-05-19T00:19:01.586Z,70.56
2019-05-19T00:20:01.577Z,70.15
2019-05-19T00:21:01.594Z,70.59
2019-05-19T00:22:01.553Z,70.29
2019-05-19T00:23:01.543Z,70.25
2019-05-19T00:24:01.546Z,70.45
2019-05-19T00:25:01.556Z,70.76
2019-05-19T00:26:01.511Z,69.95
2019-05-19T00:27:01.498Z,69.85
2019-05-19T00:28:01.487Z,70.25
2019-05-19T00:29:01.480Z,70.15
2019-05-19T00:30:01.478Z,70.36
2019-05-19T00:31:01.480Z,70.36
2019-05-19T00:32:01.445Z,70.59
2019-05-19T00:33:01.433Z,69.98
2019-05-19T00:34:01.420Z,70.08
2019-05-19T00:35:01.497Z,70.59
2019-05-19T00:36:01.435Z,70.59
2019-05-19T00:37:01.391Z,70.49
2019-05-19T00:38:01.379Z,70.49
2019-05-19T00:39:01.366Z,70.69
2019-05-19T00:40:01.361Z,70.29
2019-05-19T00:41:01.347Z,70.69
2019-05-19T00:42:01.360Z,71.20
2019-05-19T00:43:01.326Z,70.29
2019-05-19T00:44:01.318Z,70.18
2019-05-19T00:45:01.306Z,70.18
2019-05-19T00:46:01.294Z,70.69
2019-05-19T00:47:01.323Z,70.69
2019-05-19T00:48:01.270Z,70.89
2019-05-19T00:49:01.261Z,70.39
2019-05-19T00:50:01.252Z,70.01
2019-05-19T00:51:01.239Z,70.79
2019-05-19T00:52:01.245Z,70.18
2019-05-19T00:53:01.260Z,70.29
2019-05-19T00:54:01.206Z,70.69
2019-05-19T00:55:01.224Z,70.59
2019-05-19T00:56:01.187Z,70.79
2019-05-19T00:57:01.177Z,70.32
2019-05-19T00:58:01.166Z,70.83
2019-05-19T00:59:01.210Z,70.93
2019-05-19T01:00:01.142Z,70.89
2019-05-19T01:01:01.131Z,71.09
2019-05-19T01:02:01.120Z,71.03
2019-05-19T01:03:01.109Z,71.20
2019-05-19T01:04:01.108Z,71.03
2019-05-19T01:05:01.119Z,70.89
2019-05-19T01:06:01.086Z,70.32
2019-05-19T01:07:01.066Z,70.59
2019-05-19T01:08:01.055Z,70.93
2019-05-19T01:09:01.045Z,70.59
2019-05-19T01:10:01.071Z,70.29
2019-05-19T01:11:01.024Z,71.00
2019-05-19T01:12:01.012Z,71.23
2019-05-19T01:13:01.003Z,71.70
2019-05-19T01:14:00.991Z,71.84
2019-05-19T01:15:00.979Z,71.80
2019-05-19T01:16:00.997Z,71.70
2019-05-19T01:17:00.959Z,71.84
2019-05-19T01:18:00.947Z,71.84
2019-05-19T01:19:00.941Z,71.44
2019-05-19T01:20:00.924Z,71.33
2019-05-19T01:21:00.950Z,71.13
2019-05-19T01:22:00.909Z,71.13
2019-05-19T01:23:00.896Z,71.64
2019-05-19T01:24:00.881Z,71.64
2019-05-19T01:25:00.871Z,71.84
2019-05-19T01:26:00.873Z,71.94
2019-05-19T01:27:00.880Z,71.73
2019-05-19T01:28:00.839Z,71.73
2019-05-19T01:29:00.830Z,72.04
2019-05-19T01:30:00.818Z,71.77
2019-05-19T01:31:00.808Z,72.17
2019-05-19T01:32:00.829Z,71.77
2019-05-19T01:33:00.783Z,71.88
2019-05-19T01:34:00.771Z,71.77
2019-05-19T01:35:00.760Z,71.57
2019-05-19T01:36:00.751Z,71.77
2019-05-19T01:37:00.741Z,71.88
2019-05-19T01:38:00.750Z,71.88
2019-05-19T01:39:00.715Z,71.88
2019-05-19T01:40:00.707Z,71.88
2019-05-19T01:41:00.694Z,71.67
2019-05-19T01:42:00.685Z,71.88
2019-05-19T01:43:00.708Z,72.08
2019-05-19T01:44:00.660Z,71.88
2019-05-19T01:45:00.651Z,71.77
2019-05-19T01:46:00.640Z,71.67
2019-05-19T01:47:00.628Z,71.47
2019-05-19T01:48:00.618Z,71.37
2019-05-19T01:49:00.644Z,72.41
2019-05-19T01:50:16.840Z,72.31
2019-05-19T01:51:01.583Z,72.72
2019-05-19T01:52:00.576Z,72.92
2019-05-19T01:53:00.562Z,72.82
2019-05-19T01:54:00.551Z,72.61
2019-05-19T01:55:00.578Z,72.92
2019-05-19T01:56:00.526Z,73.43
2019-05-19T01:57:00.518Z,73.43
2019-05-19T01:58:00.507Z,73.33
2019-05-19T01:59:00.497Z,73.06
2019-05-19T02:00:00.483Z,73.26
2019-05-19T02:01:00.508Z,73.77
2019-05-19T02:02:00.462Z,73.63
2019-05-19T02:03:00.454Z,73.63
2019-05-19T02:04:00.445Z,73.57
2019-05-19T02:05:00.428Z,73.87
2019-05-19T02:06:00.421Z,73.87
2019-05-19T02:07:00.440Z,72.96
2019-05-19T02:08:00.395Z,74.24
2019-05-19T02:09:00.383Z,73.77
2019-05-19T02:10:00.372Z,73.77
2019-05-19T02:11:00.362Z,73.77
2019-05-19T02:12:00.386Z,73.77
2019-05-19T02:13:00.340Z,73.46
2019-05-19T02:14:00.329Z,74.07
2019-05-19T02:15:00.317Z,73.77
2019-05-19T02:16:00.306Z,73.97
2019-05-19T02:17:00.296Z,74.58
2019-05-19T02:18:00.310Z,73.97
2019-05-19T02:19:00.276Z,74.48
2019-05-19T02:20:00.267Z,74.48
2019-05-19T02:21:00.255Z,74.58
2019-05-19T02:22:00.241Z,74.38
2019-05-19T02:23:00.264Z,74.68
2019-05-19T02:24:00.217Z,74.17
2019-05-19T02:25:00.210Z,74.48
2019-05-19T02:26:00.197Z,74.38
2019-05-19T02:27:00.188Z,74.78
2019-05-19T02:28:00.175Z,73.87
2019-05-19T02:29:00.190Z,73.77
2019-05-19T02:30:00.156Z,73.46
2019-05-19T02:31:00.141Z,73.77
2019-05-19T02:32:00.129Z,73.77
2019-05-19T02:33:00.121Z,73.46
2019-05-19T02:34:00.158Z,73.77
2019-05-19T02:35:00.098Z,73.97
2019-05-19T02:36:00.115Z,74.27
2019-05-19T02:37:00.078Z,74.17
2019-05-19T02:38:00.065Z,74.71
2019-05-19T02:39:00.054Z,74.51
2019-05-19T02:40:00.065Z,74.92
2019-05-19T02:41:00.030Z,74.68
2019-05-19T02:42:00.022Z,74.68
2019-05-19T02:43:00.007Z,74.82
2019-05-19T02:43:59.997Z,74.88
2019-05-19T02:45:00.021Z,74.88
2019-05-19T02:45:59.975Z,74.78
2019-05-19T02:46:59.963Z,74.92
2019-05-19T02:47:59.955Z,74.92
2019-05-19T02:48:59.970Z,74.82
2019-05-19T02:49:59.930Z,74.92
2019-05-19T02:50:59.988Z,75.22
2019-05-19T02:51:59.907Z,75.52
2019-05-19T02:52:59.897Z,75.63
2019-05-19T02:53:59.889Z,75.12
2019-05-19T02:54:59.875Z,75.63
2019-05-19T02:55:59.864Z,75.02
2019-05-19T02:56:59.890Z,74.62
2019-05-19T02:57:59.844Z,75.02
2019-05-19T02:58:59.834Z,74.82
2019-05-19T02:59:59.819Z,74.71
2019-05-19T03:00:59.810Z,74.82
2019-05-19T03:01:59.797Z,74.71
2019-05-19T03:02:59.809Z,75.12
2019-05-19T03:03:59.778Z,75.02
2019-05-19T03:04:59.765Z,74.71
2019-05-19T03:05:59.754Z,74.62
2019-05-19T03:06:59.743Z,75.52
2019-05-19T03:07:59.765Z,75.32
2019-05-19T03:08:59.718Z,75.22
2019-05-19T03:09:59.712Z,75.32
2019-05-19T03:10:59.700Z,75.67
2019-05-19T03:11:59.686Z,75.73
2019-05-19T03:12:59.677Z,75.73
2019-05-19T03:13:59.698Z,75.97
2019-05-19T03:14:59.659Z,75.87
2019-05-19T03:15:59.644Z,75.87
2019-05-19T03:16:59.631Z,75.26
2019-05-19T03:17:59.620Z,75.05
2019-05-19T03:18:59.611Z,75.67
2019-05-19T03:19:59.625Z,75.73
2019-05-19T03:21:10.291Z,75.12
2019-05-19T03:22:00.579Z,75.43
2019-05-19T03:22:59.566Z,75.05
2019-05-19T03:23:59.557Z,75.36
2019-05-19T03:24:59.618Z,75.22
2019-05-19T03:25:59.532Z,75.63
2019-05-19T03:26:59.525Z,75.43
2019-05-19T03:27:59.513Z,75.36
2019-05-19T03:28:59.505Z,75.63
2019-05-19T03:29:59.492Z,75.16
2019-05-19T03:30:59.520Z,75.02
2019-05-19T03:31:59.470Z,75.26
2019-05-19T03:32:59.458Z,75.02
2019-05-19T03:33:59.448Z,75.46
2019-05-19T03:34:59.453Z,75.43
2019-05-19T03:35:59.425Z,74.92
2019-05-19T03:36:59.447Z,75.36
2019-05-19T03:37:59.409Z,75.26
2019-05-19T03:38:59.392Z,75.46
2019-05-19T03:39:59.381Z,75.52
2019-05-19T03:40:59.371Z,75.56
2019-05-19T03:41:59.362Z,75.26
2019-05-19T03:42:59.372Z,75.02
2019-05-19T03:43:59.340Z,75.73
2019-05-19T03:44:59.326Z,75.52
2019-05-19T03:45:59.316Z,75.22
2019-05-19T03:46:59.303Z,75.52
2019-05-19T03:47:59.332Z,75.26
2019-05-19T03:48:59.289Z,75.16
2019-05-19T03:49:59.271Z,75.63
2019-05-19T03:50:59.261Z,74.85
2019-05-19T03:51:59.248Z,74.62
2019-05-19T03:52:59.246Z,74.71
2019-05-19T03:53:59.261Z,74.92
2019-05-19T03:54:59.215Z,74.92
2019-05-19T03:55:59.207Z,74.92
2019-05-19T03:56:59.211Z,74.82
2019-05-19T03:57:59.185Z,74.82
2019-05-19T03:58:59.181Z,75.22
2019-05-19T03:59:59.184Z,74.71
2019-05-19T04:00:59.150Z,75.67
2019-05-19T04:01:59.146Z,75.32
2019-05-19T04:02:59.129Z,75.22
2019-05-19T04:03:59.128Z,75.26
2019-05-19T04:04:59.143Z,74.92
2019-05-19T04:05:59.095Z,75.43
2019-05-19T04:06:59.087Z,75.43
2019-05-19T04:07:59.074Z,74.82
2019-05-19T04:08:59.062Z,74.92
2019-05-19T04:09:59.052Z,74.62
2019-05-19T04:10:59.077Z,74.71
2019-05-19T04:11:59.046Z,74.92
2019-05-19T04:12:59.021Z,74.51
2019-05-19T04:13:59.007Z,74.31
2019-05-19T04:14:58.999Z,74.71
2019-05-19T04:15:58.990Z,74.71
2019-05-19T04:16:59.000Z,74.78
2019-05-19T04:17:58.969Z,74.21
2019-05-19T04:18:58.953Z,74.62
2019-05-19T04:19:58.943Z,74.78
2019-05-19T04:20:58.931Z,74.48
2019-05-19T04:21:58.971Z,74.38
2019-05-19T04:22:58.914Z,73.87
2019-05-19T04:23:58.900Z,73.97
2019-05-19T04:24:58.889Z,74.78
2019-05-19T04:25:58.880Z,73.97
2019-05-19T04:26:58.863Z,74.68
2019-05-19T04:27:58.890Z,73.87
2019-05-19T04:28:58.843Z,73.57
2019-05-19T04:29:58.831Z,73.97
2019-05-19T04:30:58.822Z,73.77
2019-05-19T04:31:58.809Z,73.87
2019-05-19T04:32:58.799Z,73.63
2019-05-19T04:33:58.821Z,73.63
2019-05-19T04:34:58.778Z,73.63
2019-05-19T04:35:58.766Z,73.63
2019-05-19T04:36:58.753Z,73.63
2019-05-19T04:37:58.743Z,73.73
2019-05-19T04:38:58.732Z,73.63
2019-05-19T04:39:58.747Z,73.73
2019-05-19T04:40:58.711Z,73.80
2019-05-19T04:41:58.697Z,73.09
2019-05-19T04:42:58.690Z,73.39
2019-05-19T04:43:58.677Z,73.19
2019-05-19T04:44:58.704Z,73.05
2019-05-19T04:45:58.658Z,72.75
2019-05-19T04:46:58.647Z,72.96
2019-05-19T04:47:58.636Z,72.34
2019-05-19T04:48:58.624Z,72.85
2019-05-19T04:49:58.621Z,72.75
2019-05-19T04:50:58.637Z,72.85
2019-05-19T04:52:06.681Z,72.65
2019-05-19T04:52:59.578Z,72.65
2019-05-19T04:53:58.564Z,72.85
2019-05-19T04:54:58.563Z,73.25
2019-05-19T04:55:58.544Z,73.16
2019-05-19T04:56:58.561Z,72.65
2019-05-19T04:57:58.526Z,71.30
2019-05-19T04:58:58.509Z,71.80
2019-05-19T04:59:58.499Z,71.64
2019-05-19T05:00:58.488Z,71.00
2019-05-19T05:01:58.514Z,71.20
2019-05-19T05:02:58.470Z,71.40
2019-05-19T05:03:58.456Z,70.65
2019-05-19T05:04:58.450Z,71.09
2019-05-19T05:05:58.431Z,71.06
2019-05-19T05:06:58.436Z,70.36
2019-05-19T05:07:58.448Z,70.86
2019-05-19T05:08:58.402Z,70.45
2019-05-19T05:09:58.389Z,70.56
2019-05-19T05:10:58.379Z,70.12
2019-05-19T05:11:58.368Z,69.51
2019-05-19T05:12:58.361Z,69.58
2019-05-19T05:13:58.372Z,69.61
2019-05-19T05:14:58.335Z,69.78
2019-05-19T05:15:58.325Z,68.77
2019-05-19T05:16:58.314Z,68.97
2019-05-19T05:17:58.302Z,68.87
2019-05-19T05:18:58.328Z,69.18
2019-05-19T05:19:58.288Z,68.94
2019-05-19T05:20:58.272Z,68.74
2019-05-19T05:21:58.262Z,68.74
2019-05-19T05:22:58.249Z,69.14
2019-05-19T05:23:58.259Z,69.04
2019-05-19T05:24:58.265Z,69.45
2019-05-19T05:25:58.216Z,69.04
2019-05-19T05:26:58.203Z,69.14
2019-05-19T05:27:58.192Z,69.04
2019-05-19T05:28:58.183Z,68.84
2019-05-19T05:29:58.172Z,68.84
2019-05-19T05:30:58.197Z,68.33
2019-05-19T05:31:58.150Z,68.23
2019-05-19T05:32:58.139Z,68.23
2019-05-19T05:33:58.126Z,68.13
2019-05-19T05:34:58.115Z,68.54
2019-05-19T05:35:58.103Z,68.63
2019-05-19T05:36:58.117Z,68.33
2019-05-19T05:37:58.085Z,68.30
2019-05-19T05:38:58.072Z,68.51
2019-05-19T05:39:58.059Z,68.20
2019-05-19T05:40:58.051Z,68.20
2019-05-19T05:41:58.080Z,68.13
2019-05-19T05:42:58.027Z,68.00
2019-05-19T05:43:58.016Z,68.23
2019-05-19T05:44:58.059Z,68.00
2019-05-19T05:45:57.993Z,68.10
2019-05-19T05:46:57.981Z,68.10
2019-05-19T05:47:58.012Z,67.69
2019-05-19T05:48:57.972Z,67.39
2019-05-19T05:49:57.950Z,67.09
2019-05-19T05:50:57.937Z,67.69
2019-05-19T05:51:57.926Z,68.40
2019-05-19T05:52:57.919Z,67.49
2019-05-19T05:53:57.929Z,67.19
2019-05-19T05:54:57.893Z,67.76
2019-05-19T05:55:57.883Z,67.06
2019-05-19T05:56:57.873Z,67.06
2019-05-19T05:57:57.867Z,67.16
2019-05-19T05:58:57.888Z,66.45
2019-05-19T05:59:57.841Z,66.65
2019-05-19T06:00:57.827Z,66.52
2019-05-19T06:01:57.818Z,66.15
2019-05-19T06:02:57.821Z,66.02
2019-05-19T06:03:57.795Z,66.52
2019-05-19T06:04:57.823Z,65.92
2019-05-19T06:05:57.773Z,65.92
2019-05-19T06:06:57.767Z,66.12
2019-05-19T06:07:57.750Z,66.08
2019-05-19T06:08:57.741Z,65.78
2019-05-19T06:09:57.730Z,65.88
2019-05-19T06:10:57.742Z,65.88
2019-05-19T06:11:57.716Z,65.45
2019-05-19T06:12:57.699Z,65.75
2019-05-19T06:13:57.687Z,65.35
2019-05-19T06:14:57.678Z,65.15
2019-05-19T06:15:57.705Z,65.75
2019-05-19T06:16:57.653Z,65.95
2019-05-19T06:17:57.642Z,65.75
2019-05-19T06:18:57.633Z,65.65
2019-05-19T06:19:57.620Z,65.85
2019-05-19T06:20:57.610Z,65.35
2019-05-19T06:21:57.635Z,65.35
2019-05-19T06:22:57.590Z,65.55
2019-05-19T06:23:57.577Z,65.45
2019-05-19T06:24:59.280Z,65.75
2019-05-19T06:25:57.558Z,65.58
2019-05-19T06:26:57.546Z,65.38
2019-05-19T06:27:57.569Z,66.19
2019-05-19T06:28:57.521Z,65.58
2019-05-19T06:29:57.512Z,65.75
2019-05-19T06:30:57.502Z,65.35
2019-05-19T06:31:57.490Z,65.85
2019-05-19T06:32:57.480Z,65.95
2019-05-19T06:33:57.491Z,65.35
2019-05-19T06:34:57.457Z,64.51
2019-05-19T06:35:57.445Z,64.72
2019-05-19T06:36:57.435Z,64.92
2019-05-19T06:37:57.424Z,64.07
2019-05-19T06:38:57.449Z,63.57
2019-05-19T06:39:57.401Z,64.58
2019-05-19T06:40:57.389Z,64.35
2019-05-19T06:41:57.379Z,63.95
2019-05-19T06:42:57.369Z,63.95
2019-05-19T06:43:57.359Z,63.75
2019-05-19T06:44:57.384Z,63.95
2019-05-19T06:45:57.335Z,63.95
2019-05-19T06:46:57.326Z,63.92
2019-05-19T06:47:57.313Z,63.31
2019-05-19T06:48:57.304Z,63.51
2019-05-19T06:49:57.291Z,63.42
2019-05-19T06:50:57.307Z,63.62
2019-05-19T06:51:57.269Z,63.42
2019-05-19T06:53:12.864Z,63.51
2019-05-19T06:53:58.245Z,63.11
2019-05-19T06:54:57.235Z,62.48
2019-05-19T06:55:57.260Z,62.07
2019-05-19T06:56:57.219Z,62.27
2019-05-19T06:57:57.249Z,61.74
2019-05-19T06:58:57.198Z,61.65
2019-05-19T06:59:57.184Z,61.54
2019-05-19T07:00:59.093Z,61.54
2019-05-19T07:01:57.196Z,60.94
2019-05-19T07:02:57.149Z,60.91
2019-05-19T07:03:57.143Z,60.11
2019-05-19T07:04:57.129Z,60.21
2019-05-19T07:05:57.117Z,60.28
2019-05-19T07:06:57.165Z,60.48
2019-05-19T07:07:57.119Z,59.58
2019-05-19T07:08:57.085Z,59.78
2019-05-19T07:09:58.819Z,59.45
2019-05-19T07:10:57.144Z,59.14
2019-05-19T07:11:57.055Z,59.34
2019-05-19T07:12:57.078Z,59.14
2019-05-19T07:13:57.071Z,59.14
2019-05-19T07:14:57.027Z,58.64
2019-05-19T07:15:57.007Z,58.34
2019-05-19T07:16:56.997Z,58.42
2019-05-19T07:17:56.985Z,57.61
2019-05-19T07:18:56.998Z,58.42
2019-05-19T07:19:56.962Z,58.31
2019-05-19T07:20:56.980Z,57.21
2019-05-19T07:21:56.938Z,57.91
2019-05-19T07:22:56.929Z,58.42
2019-05-19T07:23:56.917Z,57.71
2019-05-19T07:24:56.908Z,57.59
2019-05-19T07:25:56.932Z,55.78
2019-05-19T07:26:56.886Z,56.38
2019-05-19T07:27:56.874Z,55.68
2019-05-19T07:28:58.976Z,55.38
2019-05-19T07:29:56.855Z,55.25
2019-05-19T07:30:56.847Z,55.58
2019-05-19T07:31:56.869Z,55.47
2019-05-19T07:32:56.824Z,55.28
2019-05-19T07:33:56.810Z,54.85
2019-05-19T07:34:56.799Z,54.65
2019-05-19T07:35:56.787Z,54.15
2019-05-19T07:36:56.779Z,53.55
2019-05-19T07:37:56.793Z,54.15
2019-05-19T07:38:56.756Z,53.52
2019-05-19T07:39:56.745Z,53.85
2019-05-19T07:40:56.742Z,54.62
2019-05-19T07:41:56.725Z,54.82
2019-05-19T07:42:56.749Z,54.12
2019-05-19T07:43:56.703Z,53.00
2019-05-19T07:44:56.692Z,53.30
2019-05-19T07:45:56.681Z,52.80
2019-05-19T07:46:56.676Z,51.59
2019-05-19T07:47:56.661Z,52.67
2019-05-19T07:48:56.684Z,51.99
2019-05-19T07:49:56.638Z,51.77
2019-05-19T07:50:56.628Z,51.97
2019-05-19T07:51:56.619Z,51.57
2019-05-19T07:52:56.605Z,50.87
2019-05-19T07:53:56.593Z,51.94
2019-05-19T07:54:56.617Z,50.64
2019-05-19T07:55:56.576Z,50.04
2019-05-19T07:56:56.564Z,49.84
2019-05-19T07:57:56.549Z,50.02
2019-05-19T07:58:56.539Z,49.32
2019-05-19T07:59:56.530Z,49.02
2019-05-19T08:00:56.557Z,49.91
2019-05-19T08:01:56.510Z,49.91
2019-05-19T08:02:56.497Z,48.79
2019-05-19T08:03:56.697Z,49.62
2019-05-19T08:04:56.474Z,49.52
2019-05-19T08:05:57.123Z,49.19
2019-05-19T08:06:56.494Z,48.90
2019-05-19T08:07:56.440Z,49.79
2019-05-19T08:08:56.428Z,48.49
2019-05-19T08:09:56.416Z,48.99
2019-05-19T08:10:56.406Z,48.79
2019-05-19T08:11:56.397Z,48.97
2019-05-19T08:12:56.409Z,47.60
2019-05-19T08:13:56.401Z,47.17
2019-05-19T08:14:56.365Z,47.17
2019-05-19T08:15:56.358Z,48.87
2019-05-19T08:16:56.346Z,47.27
2019-05-19T08:17:56.369Z,47.27
2019-05-19T08:18:56.328Z,47.35
2019-05-19T08:19:56.311Z,47.95
2019-05-19T08:20:56.301Z,47.55
2019-05-19T08:21:56.333Z,47.15
2019-05-19T08:22:56.278Z,47.15
2019-05-19T08:24:00.534Z,47.35
2019-05-19T08:24:56.257Z,47.03
2019-05-19T08:25:56.254Z,47.13
2019-05-19T08:26:56.239Z,46.13
2019-05-19T08:28:06.510Z,46.23
2019-05-19T08:28:57.252Z,47.22
2019-05-19T08:29:56.207Z,47.13
2019-05-19T08:30:56.203Z,46.91
2019-05-19T08:31:56.296Z,46.01
2019-05-19T08:32:56.183Z,47.40
2019-05-19T08:33:56.324Z,46.50
2019-05-19T08:34:56.176Z,46.31
2019-05-19T08:35:56.141Z,47.10
2019-05-19T08:36:56.128Z,45.40
2019-05-19T08:37:56.120Z,45.59
2019-05-19T08:38:56.107Z,45.98
2019-05-19T08:39:56.132Z,45.68
2019-05-19T08:40:56.099Z,45.56
2019-05-19T08:41:56.072Z,45.56
2019-05-19T08:42:56.061Z,45.76
2019-05-19T08:43:56.121Z,45.36
2019-05-19T08:44:56.043Z,45.76
2019-05-19T08:45:56.066Z,46.06
2019-05-19T08:46:56.018Z,45.26
2019-05-19T08:47:56.012Z,45.17
2019-05-19T08:48:58.419Z,44.87
2019-05-19T08:49:55.990Z,45.47
2019-05-19T08:50:55.976Z,45.06
2019-05-19T08:51:56.002Z,45.56
2019-05-19T08:52:55.954Z,45.26
2019-05-19T08:53:56.075Z,46.04
2019-05-19T08:54:55.933Z,44.35
2019-05-19T08:55:55.925Z,43.75
2019-05-19T08:56:55.911Z,44.24
2019-05-19T08:57:55.934Z,43.85
2019-05-19T08:58:55.890Z,44.53
2019-05-19T08:59:55.879Z,44.54
2019-05-19T09:00:55.869Z,44.05
2019-05-19T09:01:55.859Z,43.95
2019-05-19T09:02:55.846Z,44.05
2019-05-19T09:03:55.873Z,43.05
2019-05-19T09:04:55.829Z,43.95
2019-05-19T09:05:55.816Z,43.15
2019-05-19T09:06:55.806Z,43.23
2019-05-19T09:07:55.792Z,44.12
2019-05-19T09:08:55.781Z,43.43
2019-05-19T09:09:55.813Z,44.02
2019-05-19T09:10:55.761Z,44.02
2019-05-19T09:11:55.748Z,44.62
2019-05-19T09:12:55.739Z,44.20
2019-05-19T09:13:55.728Z,44.60
2019-05-19T09:14:55.716Z,44.90
2019-05-19T09:15:55.743Z,44.80
2019-05-19T09:16:55.695Z,44.62
2019-05-19T09:17:55.684Z,45.00
2019-05-19T09:18:55.672Z,44.31
2019-05-19T09:19:55.662Z,45.30
2019-05-19T09:20:55.651Z,44.31
2019-05-19T09:21:55.675Z,45.20
2019-05-19T09:22:55.630Z,44.40
2019-05-19T09:23:55.619Z,45.40
2019-05-19T09:24:55.607Z,45.20
2019-05-19T09:25:55.613Z,44.02
2019-05-19T09:26:55.585Z,44.72
2019-05-19T09:27:55.616Z,45.72
2019-05-19T09:28:55.564Z,45.52
2019-05-19T09:29:55.557Z,45.92
2019-05-19T09:30:55.542Z,45.50
2019-05-19T09:31:55.530Z,45.30
2019-05-19T09:32:55.520Z,45.30
2019-05-19T09:33:55.544Z,43.90
2019-05-19T09:34:55.499Z,43.52
2019-05-19T09:35:55.489Z,43.82
2019-05-19T09:36:55.476Z,43.82
2019-05-19T09:37:55.464Z,44.01
2019-05-19T09:38:55.457Z,44.42
2019-05-19T09:39:55.487Z,43.93
2019-05-19T09:40:55.436Z,43.90
2019-05-19T09:41:55.420Z,42.91
2019-05-19T09:42:55.413Z,42.91
2019-05-19T09:43:55.398Z,43.60
2019-05-19T09:44:55.387Z,43.71
2019-05-19T09:45:55.424Z,44.20
2019-05-19T09:46:55.365Z,44.20
2019-05-19T09:47:55.358Z,43.80
2019-05-19T09:48:55.342Z,44.28
2019-05-19T09:49:55.337Z,43.71
2019-05-19T09:50:55.359Z,43.79
2019-05-19T09:51:55.369Z,43.49
2019-05-19T09:52:55.300Z,42.99
2019-05-19T09:53:55.292Z,43.49
2019-05-19T09:54:55.278Z,43.08
2019-05-19T09:55:55.267Z,43.08
2019-05-19T09:56:55.259Z,42.86
2019-05-19T09:57:55.281Z,42.97
2019-05-19T09:58:55.235Z,42.97
2019-05-19T09:59:55.225Z,42.37
2019-05-19T10:00:55.228Z,43.46
2019-05-19T10:01:55.203Z,42.94
2019-05-19T10:02:55.193Z,42.15
2019-05-19T10:03:55.221Z,42.35
2019-05-19T10:04:55.172Z,42.45
2019-05-19T10:05:55.161Z,41.97
2019-05-19T10:06:55.168Z,41.77
2019-05-19T10:07:55.138Z,41.75
2019-05-19T10:08:55.130Z,41.66
2019-05-19T10:09:55.160Z,41.95
2019-05-19T10:10:55.115Z,42.25
2019-05-19T10:11:55.097Z,42.45
2019-05-19T10:12:55.088Z,41.55
2019-05-19T10:13:55.078Z,42.13
2019-05-19T10:14:55.064Z,41.93
2019-05-19T10:15:55.089Z,41.24
2019-05-19T10:16:55.043Z,40.84
2019-05-19T10:17:55.102Z,41.24
2019-05-19T10:18:55.020Z,39.84
2019-05-19T10:19:55.015Z,40.44
2019-05-19T10:20:55.002Z,41.22
2019-05-19T10:21:55.026Z,41.12
2019-05-19T10:22:54.980Z,41.61
2019-05-19T10:23:54.972Z,41.12
2019-05-19T10:25:19.930Z,41.22
2019-05-19T10:25:55.948Z,40.52
2019-05-19T10:26:54.940Z,40.41
2019-05-19T10:27:54.965Z,40.30
2019-05-19T10:28:54.917Z,40.20
2019-05-19T10:29:54.908Z,40.22
2019-05-19T10:30:54.894Z,40.33
2019-05-19T10:31:54.887Z,40.22
2019-05-19T10:32:54.875Z,40.92
2019-05-19T10:33:54.901Z,41.02
2019-05-19T10:34:54.852Z,40.52
2019-05-19T10:35:54.841Z,39.73
2019-05-19T10:36:54.830Z,39.63
2019-05-19T10:37:54.819Z,40.12
2019-05-19T10:38:54.811Z,40.44
2019-05-19T10:39:54.833Z,40.82
2019-05-19T10:40:54.789Z,41.02
2019-05-19T10:41:54.777Z,41.71
2019-05-19T10:42:54.764Z,41.00
2019-05-19T10:43:54.756Z,41.79
2019-05-19T10:44:54.745Z,41.09
2019-05-19T10:45:54.772Z,41.60
2019-05-19T10:46:54.722Z,40.48
2019-05-19T10:47:54.712Z,39.69
2019-05-19T10:48:54.705Z,39.59
2019-05-19T10:49:54.691Z,38.88
2019-05-19T10:50:54.679Z,38.88
2019-05-19T10:51:54.707Z,40.44
2019-05-19T10:52:54.659Z,39.65
2019-05-19T10:53:54.648Z,39.34
2019-05-19T10:54:54.641Z,39.23
2019-05-19T10:55:54.628Z,37.83
2019-05-19T10:56:54.622Z,38.03
2019-05-19T10:57:54.669Z,38.03
2019-05-19T10:58:54.594Z,39.12
2019-05-19T10:59:54.582Z,37.83
2019-05-19T11:00:54.572Z,38.23
2019-05-19T11:01:54.563Z,38.01
2019-05-19T11:02:54.549Z,38.03
2019-05-19T11:03:54.578Z,38.11
2019-05-19T11:04:54.529Z,39.02
2019-05-19T11:05:54.521Z,38.53
2019-05-19T11:06:54.508Z,38.64
2019-05-19T11:07:54.498Z,39.06
2019-05-19T11:08:54.487Z,38.96
2019-05-19T11:09:54.513Z,38.74
2019-05-19T11:10:54.465Z,39.12
2019-05-19T11:11:54.455Z,38.42
2019-05-19T11:12:54.446Z,38.51
2019-05-19T11:13:54.442Z,37.41
2019-05-19T11:14:54.423Z,37.16
2019-05-19T11:15:54.449Z,36.77
2019-05-19T11:16:54.401Z,37.18
2019-05-19T11:17:54.393Z,37.91
2019-05-19T11:18:54.388Z,37.83
2019-05-19T11:19:54.369Z,38.42
2019-05-19T11:20:54.357Z,39.00
2019-05-19T11:21:54.383Z,37.38
2019-05-19T11:22:54.336Z,37.38
2019-05-19T11:23:54.325Z,38.40
2019-05-19T11:24:54.315Z,37.08
2019-05-19T11:25:54.303Z,35.55
2019-05-19T11:26:54.293Z,35.76
2019-05-19T11:27:54.323Z,36.87
2019-05-19T11:28:54.272Z,38.19
2019-05-19T11:29:54.295Z,38.78
2019-05-19T11:30:54.251Z,38.37
2019-05-19T11:31:54.241Z,38.59
2019-05-19T11:32:54.241Z,37.46
2019-05-19T11:33:54.256Z,36.11
2019-05-19T11:34:54.217Z,34.30
2019-05-19T11:35:54.198Z,33.46
2019-05-19T11:36:54.189Z,33.61
2019-05-19T11:37:54.178Z,32.02
2019-05-19T11:38:54.168Z,32.81
2019-05-19T11:39:54.193Z,32.78
2019-05-19T11:40:54.146Z,31.86
2019-05-19T11:41:54.134Z,31.26
2019-05-19T11:42:54.126Z,32.15
2019-05-19T11:43:54.116Z,31.17
2019-05-19T11:44:54.102Z,30.98
2019-05-19T11:45:54.128Z,30.87
2019-05-19T11:46:54.083Z,30.65
2019-05-19T11:47:54.071Z,30.87
2019-05-19T11:48:54.063Z,29.87
2019-05-19T11:49:54.052Z,29.58
2019-05-19T11:50:54.041Z,29.66
2019-05-19T11:51:54.069Z,28.09
2019-05-19T11:52:54.025Z,29.49
2019-05-19T11:53:54.010Z,29.56
2019-05-19T11:54:53.998Z,28.67
2019-05-19T11:56:05.680Z,30.08
2019-05-19T11:56:55.015Z,30.81
2019-05-19T11:57:54.053Z,30.80
2019-05-19T11:58:53.967Z,29.10
2019-05-19T11:59:53.947Z,30.55
2019-05-19T12:00:53.938Z,30.16
2019-05-19T12:01:53.929Z,29.56
2019-05-19T12:02:53.952Z,28.78
2019-05-19T12:03:55.540Z,29.80
2019-05-19T12:04:53.903Z,30.30
2019-05-19T12:05:53.902Z,29.70
2019-05-19T12:06:53.876Z,28.91
2019-05-19T12:07:53.864Z,29.68
2019-05-19T12:08:53.892Z,28.78
2019-05-19T12:09:53.845Z,27.87
2019-05-19T12:10:53.837Z,28.64
2019-05-19T12:11:53.825Z,28.32
2019-05-19T12:12:53.815Z,28.22
2019-05-19T12:13:53.806Z,27.61
2019-05-19T12:14:53.833Z,27.41
2019-05-19T12:15:53.831Z,26.81
2019-05-19T12:16:53.806Z,26.81
2019-05-19T12:17:53.763Z,26.72
2019-05-19T12:18:57.344Z,28.25
2019-05-19T12:19:53.742Z,29.75
2019-05-19T12:20:53.768Z,30.15
2019-05-19T12:21:53.720Z,29.44
2019-05-19T12:22:53.714Z,28.53
2019-05-19T12:23:53.702Z,27.93
2019-05-19T12:24:53.689Z,28.53
2019-05-19T12:25:53.685Z,28.03
2019-05-19T12:26:53.802Z,26.53
2019-05-19T12:27:53.661Z,27.62
2019-05-19T12:28:53.652Z,28.20
2019-05-19T12:29:53.640Z,27.84
2019-05-19T12:30:53.632Z,28.14
2019-05-19T12:31:53.619Z,27.84
2019-05-19T12:32:53.647Z,28.33
2019-05-19T12:33:53.601Z,27.05
2019-05-19T12:34:53.591Z,27.12
2019-05-19T12:35:53.610Z,26.23
2019-05-19T12:36:53.572Z,26.30
2019-05-19T12:37:53.560Z,26.37
2019-05-19T12:38:53.586Z,25.09
2019-05-19T12:39:53.559Z,25.47
2019-05-19T12:40:53.539Z,25.78
2019-05-19T12:41:53.521Z,25.78
2019-05-19T12:42:53.540Z,25.86
2019-05-19T12:43:53.508Z,25.47
2019-05-19T12:44:53.529Z,26.26
2019-05-19T12:45:53.496Z,26.29
2019-05-19T12:46:53.490Z,26.26
2019-05-19T12:47:53.463Z,24.98
2019-05-19T12:48:53.452Z,25.46
2019-05-19T12:49:53.443Z,25.85
2019-05-19T12:50:53.469Z,26.44
2019-05-19T12:51:53.425Z,25.58